• Join FlightAware (Why Join?)
  • Login
  • US Flag 
10:15PM EDT


 

Airport Tracker/Info


-or-


 

Live Flight TrackerFlight Track Log ✈ SWA655 ✈ 08-Apr-2013 ✈ KSFO - KLAX

Flight Track Log - Related Links

Times and Time Zones

All times are in EDT time to prevent confusion due to time zone crossing. See the SWA655 flight status page for this flight to view local times or setup timezone preferences in your user account.

Time Position Orientation Groundspeed Altitude Reporting Facility
EDT Latitude Longitude Course Direction KTS MPH feet Rate Location/Type
06:06PM 37.6167 -122.3833 310° West 130 150 1,100  Level Northern Cal TRACON
06:06PM 37.6500 -122.4333 310° West 189 217 3,100 2,580 Climbing Northern Cal TRACON
06:07PM 37.6500 -122.5000 270° West 260 299 6,100 2,760 Climbing Northern Cal TRACON
06:09PM 37.5569 -122.5050 182° South 278 320 9,500 3,060 Climbing Oakland Center
06:10PM 37.4731 -122.4067 137° Southeast 348 400 13,200 3,480 Climbing Oakland Center
06:11PM 37.3986 -122.3031 132° Southeast 389 448 16,600 3,000 Climbing Oakland Center
06:12PM 37.3139 -122.1906 133° Southeast 432 497 19,400 2,820 Climbing Oakland Center
06:13PM 37.2269 -122.0689 132° Southeast 463 533 22,400 1,740 Climbing Oakland Center
06:14PM 37.1369 -121.9472 133° Southeast 475 547 23,000 240 Climbing Oakland Center
06:15PM 37.0475 -121.8250 132° Southeast 477 549 23,000  Level Oakland Center
06:16PM 36.9564 -121.7042 133° Southeast 480 552 23,000  Level Oakland Center
06:17PM 36.8664 -121.5803 132° Southeast 481 554 23,000  Level Oakland Center
06:18PM 36.7714 -121.4519 133° Southeast 483 556 23,000  Level Oakland Center
06:19PM 36.6750 -121.3258 134° Southeast 503 579 23,000 -60 Level Oakland Center
06:20PM 36.5775 -121.1967 133° Southeast 511 588 22,900  Descending Oakland Center
06:21PM 36.4814 -121.0642 132° Southeast 514 592 23,000  Climbing Oakland Center
06:22PM 36.3819 -120.9356 134° Southeast 516 594 23,000 -60 Level Oakland Center
06:23PM 36.2831 -120.8036 133° Southeast 521 600 22,900  Descending Oakland Center
06:24PM 36.1647 -120.6486 133° Southeast 516 594 23,000  Climbing Oakland Center
06:25PM 36.0647 -120.5183 133° Southeast 521 600 23,000 -60 Level Oakland Center
06:26PM 35.9642 -120.3872 133° Southeast 520 598 22,900  Descending Oakland Center
06:27PM 35.8647 -120.2592 134° Southeast 515 593 23,000  Climbing Oakland Center
06:28PM 35.7650 -120.1306 134° Southeast 516 594 23,000  Level Oakland Center
06:29PM 35.6633 -119.9997 134° Southeast 524 603 23,000  Level Oakland Center
06:30PM 35.5439 -119.8908 143° Southeast 532 612 23,000  Level Oakland Center
06:31PM 35.4192 -119.7825 145° Southeast 541 623 23,000  Level Oakland Center
06:32PM 35.2947 -119.6753 145° Southeast 544 626 23,000  Level Oakland Center
06:33PM 35.1703 -119.5686 145° Southeast 545 627 23,000  Level Oakland Center
06:34PM 35.0469 -119.4628 145° Southeast 541 623 23,000  Level Oakland Center
06:35PM 34.9225 -119.3567 145° Southeast 543 625 23,000  Level Oakland Center
06:35PM 34.8983 -119.3356 144° Southeast 542 624 23,000 -120 Level Los Angeles Center
06:37PM 34.7483 -119.2083 145° Southeast 546 628 22,900 -1,320 Descending Los Angeles Center
06:38PM 34.6183 -119.0992 145° Southeast 533 613 20,100 -2,760 Descending Los Angeles Center
06:39PM 34.4803 -118.9858 146° Southeast 493 567 17,300 -2,460 Descending Los Angeles Center
06:40PM 34.3739 -118.8975 146° Southeast 462 532 15,100 -2,220 Descending Los Angeles Center
06:41PM 34.2578 -118.8458 160° South 443 510 12,800 -1,500 Descending Los Angeles Center
06:42PM 34.1467 -118.8050 163° South 415 478 12,000 -1,020 Descending Los Angeles Center
06:43PM 34.0450 -118.7447 154° Southeast 373 429 10,800 -1,020 Descending Los Angeles Center
06:44PM 34.0283 -118.6436 101° East 310 357 10,000 -1,200 Descending Los Angeles Center
06:45PM 34.0172 -118.5350 97° East 304 350 8,400 -1,260 Descending Los Angeles Center
06:46PM 34.0128 -118.4414 93° East 281 323 7,500 -1,080 Descending Los Angeles Center
06:47PM 34.0194 -118.3675 84° East 231 266 6,300 -1,560 Descending Los Angeles Center
06:48PM 34.0239 -118.3028 85° East 202 232 4,300 -1,680 Descending Los Angeles Center
06:49PM 33.9889 -118.2767 148° Southeast 188 216 2,900 -1,200 Descending Los Angeles Center
06:50PM 33.9614 -118.3058 221° Southwest 164 189 1,900 -900 Descending Los Angeles Center
06:51PM 33.9583 -118.3486 265° West 142 163 1,100 -840 Descending Los Angeles Center
06:52PM 33.9528 -118.3994 263° West 132 152 200 -900 Descending Los Angeles Center
06:54PM 33.9333 -118.4000 228° Southwest  Level FlightAware Approximate
07:01PM 33.9425 -118.4081 228° Southwest  Level Estimated